New Horizon — WKWB — position and weather

sailwx.info

Track history (hours):
 
Tides and Currents Weather Stations Pressure Air Temp Water Temp Dewpoint Dewpoint Depression Visibility Wind Speed Wind Dir Waves Ship Positions

Oceanographic research ship New Horizon (USA)

Detailed information on ship capabilities available from University of Delaware's Ocean Information Center.

Owner: Bold Horizon, LLC., Annapolis, MD. More information available from US FCC via Universal Licensing System and Coast Guard Vessel Documentation Center.

Last reported at 2018-Apr-02 13:18 UTC. Time now 2018-May-20 13:48 UTC.
Position N 32°39' W 117°22'.
Warning: this ship's position is 48 days out of date.

Type: Other ship. MMSI: 303273000.

Date/timePositionNaut miles runAvg speedWind from/ knotsBaromVisibWave heightAir tempDewpointWater temp
2018-Apr-02 13:18N 32°39' W 117°22'2 6.9
2018-Apr-02 12:57N 32°40' W 117°25'3 6.9
2018-Apr-02 12:30N 32°42' W 117°28'4 7.1
2018-Apr-02 12:00N 32°43' W 117°32'3 7.0
2018-Apr-02 11:30N 32°44' W 117°36'3 7.0
2018-Apr-02 11:00N 32°46' W 117°40'4 7.2
2018-Apr-02 10:30N 32°47' W 117°44'4 7.2
2018-Apr-02 10:00N 32°48' W 117°48'70 7.5
2018-Apr-02 00:38N 33°09' W 119°08'2 8.2
2018-Apr-02 00:26N 33°09' W 119°09'4 8.2
2018-Apr-02 00:00N 33°10' W 119°14'4 8.3
2018-Apr-01 23:30N 33°11' W 119°18'4 8.4
2018-Apr-01 23:00N 33°12' W 119°24'8 8.4
2018-Apr-01 22:01N 33°14' W 119°33'0 8.5
2018-Apr-01 21:59N 33°14' W 119°33'1 1.5
2018-Apr-01 21:30N 33°14' W 119°34'0 0.0
2018-Apr-01 21:00N 33°14' W 119°34'0 0.0
2018-Apr-01 20:30N 33°14' W 119°34'0 0.1
2018-Apr-01 19:59N 33°14' W 119°34'0 0.1
2018-Apr-01 19:30N 33°14' W 119°34'0 0.0
2018-Apr-01 19:00N 33°14' W 119°34'0 0.1
2018-Apr-01 18:30N 33°14' W 119°34'0 0.1
2018-Apr-01 18:00N 33°14' W 119°34'0 0.0
2018-Apr-01 17:30N 33°14' W 119°34'0 0.0
2018-Apr-01 17:00N 33°14' W 119°34'0 0.0
2018-Apr-01 16:29N 33°14' W 119°34'0 0.0
2018-Apr-01 16:00N 33°14' W 119°34'0 0.1
2018-Apr-01 15:30N 33°14' W 119°34'0 0.4
2018-Apr-01 15:00N 33°14' W 119°34'0 0.3
2018-Apr-01 14:30N 33°14' W 119°34'0 0.0
2018-Apr-01 14:00N 33°14' W 119°34'0 0.0
2018-Apr-01 13:30N 33°14' W 119°34'0 0.0
2018-Apr-01 12:59N 33°14' W 119°34'0 0.0
2018-Apr-01 12:30N 33°14' W 119°34'0 0.0
2018-Apr-01 11:57N 33°14' W 119°34'0 0.0
2018-Apr-01 11:29N 33°14' W 119°34'0 0.0
2018-Apr-01 11:00N 33°14' W 119°34'0 0.0
2018-Apr-01 10:30N 33°14' W 119°34'0 0.0
2018-Apr-01 10:00N 33°14' W 119°34'0 0.0
2018-Apr-01 09:30N 33°14' W 119°34'0 0.0
2018-Apr-01 09:00N 33°14' W 119°34'0 0.0
2018-Apr-01 08:29N 33°14' W 119°34'0 0.0
2018-Apr-01 07:59N 33°14' W 119°34'0 0.0
2018-Apr-01 07:30N 33°14' W 119°34'0 0.0
2018-Apr-01 06:59N 33°14' W 119°34'0 0.0
2018-Apr-01 06:29N 33°14' W 119°34'0 0.1
2018-Apr-01 06:00N 33°14' W 119°34'0 0.7
2018-Apr-01 05:30N 33°14' W 119°34'0 0.0
2018-Apr-01 04:59N 33°14' W 119°34'0 0.0
2018-Apr-01 04:29N 33°14' W 119°34'0 0.0
2018-Apr-01 04:00N 33°14' W 119°34'0 0.0
2018-Apr-01 03:30N 33°14' W 119°34'0 0.0
2018-Apr-01 03:00N 33°14' W 119°34'0 0.0
2018-Apr-01 02:25N 33°14' W 119°34'0 0.0
2018-Apr-01 01:59N 33°14' W 119°34'0 0.0
2018-Apr-01 01:30N 33°14' W 119°34'0 0.3
2018-Apr-01 00:59N 33°14' W 119°34'1 1.5
2018-Apr-01 00:30N 33°14' W 119°33'4 7.2
2018-Apr-01 00:01N 33°13' W 119°29'3 1.6
2018-Mar-31 22:10N 33°13' W 119°33'2 4.1
2018-Mar-31 21:48N 33°14' W 119°34'0 0.0
2018-Mar-31 21:28N 33°14' W 119°34'0 0.1
2018-Mar-31 20:58N 33°14' W 119°34'0 0.1
2018-Mar-31 20:30N 33°14' W 119°34'0 0.0
2018-Mar-31 19:54N 33°14' W 119°34'0 0.2
2018-Mar-31 19:30N 33°14' W 119°34'0 0.2
2018-Mar-31 19:00N 33°14' W 119°34'0 0.1
2018-Mar-31 18:30N 33°14' W 119°34'0 0.1
2018-Mar-31 18:00N 33°14' W 119°34'0 0.2
2018-Mar-31 17:30N 33°14' W 119°34'0 0.6
2018-Mar-31 17:00N 33°14' W 119°34'0 0.1
2018-Mar-31 16:30N 33°14' W 119°34'0 0.0
2018-Mar-31 15:56N 33°14' W 119°34'0 0.1
2018-Mar-31 15:29N 33°14' W 119°34'0 0.0
2018-Mar-31 14:58N 33°14' W 119°34'0 0.0
2018-Mar-31 14:30N 33°14' W 119°34'0 0.0
2018-Mar-31 14:00N 33°14' W 119°34'0 0.0
2018-Mar-31 13:30N 33°14' W 119°34'0 0.0
2018-Mar-31 13:00N 33°14' W 119°34'0 0.0
2018-Mar-31 12:30N 33°14' W 119°34'0 0.0
2018-Mar-31 12:00N 33°14' W 119°34'0 0.0
2018-Mar-31 11:29N 33°14' W 119°34'0 0.0
2018-Mar-31 11:00N 33°14' W 119°34'0 0.0
2018-Mar-31 10:28N 33°14' W 119°34'0 0.0
2018-Mar-31 10:00N 33°14' W 119°34'0 0.0
2018-Mar-31 09:24N 33°14' W 119°34'0 0.0
2018-Mar-31 09:00N 33°14' W 119°34'0 0.0
2018-Mar-31 06:49N 33°14' W 119°34'0 0.0
2018-Mar-31 06:19N 33°14' W 119°34'0 0.1
2018-Mar-31 05:51N 33°14' W 119°34'0 0.0
2018-Mar-31 05:22N 33°14' W 119°34'0 0.1
2018-Mar-31 04:42N 33°14' W 119°34'1 1.8
2018-Mar-31 04:08N 33°14' W 119°35'1 4.1
2018-Mar-31 03:50N 33°14' W 119°34'0 0.2
2018-Mar-31 03:28N 33°14' W 119°34'0 0.1
2018-Mar-31 03:00N 33°14' W 119°34'0 0.6
2018-Mar-31 02:18N 33°14' W 119°34'0 0.2
2018-Mar-31 01:45N 33°14' W 119°34'0 0.0
2018-Mar-31 01:29N 33°14' W 119°34'0 0.0
2018-Mar-31 00:39N 33°14' W 119°34'0 0.0
2018-Mar-31 00:28N 33°14' W 119°34'0 0.0
2018-Mar-30 23:53N 33°14' W 119°34'0 0.0
2018-Mar-30 21:56N 33°14' W 119°34'0 0.2
2018-Mar-30 21:17N 33°14' W 119°34'0 0.2
2018-Mar-30 20:59N 33°14' W 119°34'0 0.0
2018-Mar-30 18:54N 33°14' W 119°34'0 0.0
2018-Mar-30 18:27N 33°14' W 119°34'0 0.0
2018-Mar-30 17:59N 33°14' W 119°34'0 0.1
2018-Mar-30 17:27N 33°14' W 119°34'0 0.0
2018-Mar-30 16:54N 33°14' W 119°34'0 0.1
2018-Mar-30 16:26N 33°14' W 119°34'0 0.0
2018-Mar-30 15:49N 33°14' W 119°34'0 0.2
2018-Mar-30 15:28N 33°14' W 119°34'0 0.0
2018-Mar-30 15:00N 33°14' W 119°34'0 0.0
2018-Mar-30 14:29N 33°14' W 119°34'0 0.2
2018-Mar-30 14:00N 33°14' W 119°34'0 0.1
2018-Mar-30 13:26N 33°14' W 119°34'6 5.9
2018-Mar-30 12:27N 33°12' W 119°28'1 1.4
2018-Mar-30 11:29N 33°13' W 119°26'0 0.0
2018-Mar-30 10:56N 33°13' W 119°26'0 0.0
2018-Mar-30 10:23N 33°13' W 119°26'0 0.0
2018-Mar-30 10:00N 33°13' W 119°26'0 0.0
2018-Mar-30 09:30N 33°13' W 119°26'0 0.0
2018-Mar-30 08:59N 33°13' W 119°26'0 0.0
2018-Mar-30 08:31N 33°13' W 119°26'0 0.1
2018-Mar-30 00:59N 33°13' W 119°26'3 6.7
2018-Mar-30 00:30N 33°13' W 119°22'4 8.9
2018-Mar-30 00:00N 33°17' W 119°19'4 8.7
2018-Mar-29 23:30N 33°20' W 119°15'4 8.3
2018-Mar-29 23:00N 33°23' W 119°12'5 8.0
2018-Mar-29 22:19N 33°27' W 119°08'3 7.9
2018-Mar-29 21:59N 33°30' W 119°07'4 8.3
2018-Mar-29 21:27N 33°34' W 119°06'4 8.6
2018-Mar-29 20:59N 33°38' W 119°05'4 8.6
2018-Mar-29 20:30N 33°42' W 119°06'4 8.4
2018-Mar-29 20:00N 33°46' W 119°06'4 8.5
2018-Mar-29 19:29N 33°51' W 119°06'4 8.5
2018-Mar-29 19:00N 33°55' W 119°06'4 8.5
2018-Mar-29 18:30N 33°59' W 119°09'5 8.3
2018-Mar-29 17:55N 34°03' W 119°11'3 8.2
2018-Mar-29 17:30N 34°06' W 119°13'1 2.4
2018-Mar-29 17:00N 34°07' W 119°14'1 1.6
2018-Mar-29 16:30N 34°08' W 119°13'0 0.8
2018-Mar-29 15:58N 34°08' W 119°13'0 0.8
2018-Mar-29 15:28N 34°07' W 119°13'0 0.8
2018-Mar-29 15:00N 34°07' W 119°13'0 0.8
2018-Mar-29 14:29N 34°07' W 119°12'2 4.5
2018-Mar-29 14:01N 34°05' W 119°10'3 6.1
2018-Mar-29 13:30N 34°03' W 119°07'3 6.0
2018-Mar-29 12:57N 34°01' W 119°04'3 6.2
2018-Mar-29 12:30N 33°59' W 119°02'3 6.6
2018-Mar-29 12:00N 33°57' W 118°59'4 7.0
2018-Mar-29 11:30N 33°54' W 118°56'3 7.0
2018-Mar-29 11:00N 33°52' W 118°53'4 7.5
2018-Mar-29 10:30N 33°49' W 118°50'4 8.0
2018-Mar-29 10:00N 33°46' W 118°47'4 8.7
2018-Mar-29 09:30N 33°43' W 118°43'4 8.6
2018-Mar-29 09:00N 33°40' W 118°40'4 8.5
2018-Mar-29 08:30N 33°37' W 118°36'4 8.2
2018-Mar-29 08:00N 33°34' W 118°32'4 7.8
2018-Mar-29 07:30N 33°32' W 118°29'4 8.1
2018-Mar-29 07:00N 33°29' W 118°25'4 8.5
2018-Mar-29 06:30N 33°26' W 118°22'4 8.9
2018-Mar-29 06:00N 33°23' W 118°18'4 8.8
2018-Mar-29 05:31N 33°20' W 118°14'4 8.4
2018-Mar-29 04:59N 33°17' W 118°10'4 8.5
2018-Mar-29 04:29N 33°14' W 118°07'4 8.2
2018-Mar-29 04:01N 33°11' W 118°04'4 8.2
2018-Mar-29 03:30N 33°07' W 118°01'4 8.1
2018-Mar-29 02:59N 33°04' W 117°57'4 8.0
2018-Mar-29 02:30N 33°01' W 117°54'4 7.9
2018-Mar-29 02:00N 32°59' W 117°51'4 7.7
2018-Mar-29 01:31N 32°56' W 117°47'4 8.0
2018-Mar-29 00:57N 32°53' W 117°43'4 8.0
2018-Mar-29 00:30N 32°51' W 117°40'4 7.8
2018-Mar-29 00:00N 32°49' W 117°36'4 7.8
2018-Mar-28 23:30N 32°47' W 117°33'4 7.7
2018-Mar-28 23:00N 32°44' W 117°29'4 7.6
2018-Mar-28 22:30N 32°42' W 117°25'4 7.8
2018-Mar-28 22:00N 32°40' W 117°21'  
Track history (hours):
 
Tides and Currents Weather Stations Pressure Air Temp Water Temp Dewpoint Dewpoint Depression Visibility Wind Speed Wind Dir Waves Ship Positions

Oceanographic research ship New Horizon (USA)

Detailed information on ship capabilities available from University of Delaware's Ocean Information Center.

Owner: Bold Horizon, LLC., Annapolis, MD. More information available from US FCC via Universal Licensing System and Coast Guard Vessel Documentation Center.

Last reported at 2018-Apr-02 13:18 UTC. Time now 2018-May-20 13:48 UTC.
Position N 32°39' W 117°22'.
Warning: this ship's position is 48 days out of date.

Type: Other ship. MMSI: 303273000.

Date/timePositionNaut miles runAvg speedWind from/ knotsBaromVisibWave heightAir tempDewpointWater temp
2018-Apr-02 13:18N 32°39' W 117°22'2 6.9
2018-Apr-02 12:57N 32°40' W 117°25'3 6.9
2018-Apr-02 12:30N 32°42' W 117°28'4 7.1
2018-Apr-02 12:00N 32°43' W 117°32'3 7.0
2018-Apr-02 11:30N 32°44' W 117°36'3 7.0
2018-Apr-02 11:00N 32°46' W 117°40'4 7.2
2018-Apr-02 10:30N 32°47' W 117°44'4 7.2
2018-Apr-02 10:00N 32°48' W 117°48'70 7.5
2018-Apr-02 00:38N 33°09' W 119°08'2 8.2
2018-Apr-02 00:26N 33°09' W 119°09'4 8.2
2018-Apr-02 00:00N 33°10' W 119°14'4 8.3
2018-Apr-01 23:30N 33°11' W 119°18'4 8.4
2018-Apr-01 23:00N 33°12' W 119°24'8 8.4
2018-Apr-01 22:01N 33°14' W 119°33'0 8.5
2018-Apr-01 21:59N 33°14' W 119°33'1 1.5
2018-Apr-01 21:30N 33°14' W 119°34'0 0.0
2018-Apr-01 21:00N 33°14' W 119°34'0 0.0
2018-Apr-01 20:30N 33°14' W 119°34'0 0.1
2018-Apr-01 19:59N 33°14' W 119°34'0 0.1
2018-Apr-01 19:30N 33°14' W 119°34'0 0.0
2018-Apr-01 19:00N 33°14' W 119°34'0 0.1
2018-Apr-01 18:30N 33°14' W 119°34'0 0.1
2018-Apr-01 18:00N 33°14' W 119°34'0 0.0
2018-Apr-01 17:30N 33°14' W 119°34'0 0.0
2018-Apr-01 17:00N 33°14' W 119°34'0 0.0
2018-Apr-01 16:29N 33°14' W 119°34'0 0.0
2018-Apr-01 16:00N 33°14' W 119°34'0 0.1
2018-Apr-01 15:30N 33°14' W 119°34'0 0.4
2018-Apr-01 15:00N 33°14' W 119°34'0 0.3
2018-Apr-01 14:30N 33°14' W 119°34'0 0.0
2018-Apr-01 14:00N 33°14' W 119°34'0 0.0
2018-Apr-01 13:30N 33°14' W 119°34'0 0.0
2018-Apr-01 12:59N 33°14' W 119°34'0 0.0
2018-Apr-01 12:30N 33°14' W 119°34'0 0.0
2018-Apr-01 11:57N 33°14' W 119°34'0 0.0
2018-Apr-01 11:29N 33°14' W 119°34'0 0.0
2018-Apr-01 11:00N 33°14' W 119°34'0 0.0
2018-Apr-01 10:30N 33°14' W 119°34'0 0.0
2018-Apr-01 10:00N 33°14' W 119°34'0 0.0
2018-Apr-01 09:30N 33°14' W 119°34'0 0.0
2018-Apr-01 09:00N 33°14' W 119°34'0 0.0
2018-Apr-01 08:29N 33°14' W 119°34'0 0.0
2018-Apr-01 07:59N 33°14' W 119°34'0 0.0
2018-Apr-01 07:30N 33°14' W 119°34'0 0.0
2018-Apr-01 06:59N 33°14' W 119°34'0 0.0
2018-Apr-01 06:29N 33°14' W 119°34'0 0.1
2018-Apr-01 06:00N 33°14' W 119°34'0 0.7
2018-Apr-01 05:30N 33°14' W 119°34'0 0.0
2018-Apr-01 04:59N 33°14' W 119°34'0 0.0
2018-Apr-01 04:29N 33°14' W 119°34'0 0.0
2018-Apr-01 04:00N 33°14' W 119°34'0 0.0
2018-Apr-01 03:30N 33°14' W 119°34'0 0.0
2018-Apr-01 03:00N 33°14' W 119°34'0 0.0
2018-Apr-01 02:25N 33°14' W 119°34'0 0.0
2018-Apr-01 01:59N 33°14' W 119°34'0 0.0
2018-Apr-01 01:30N 33°14' W 119°34'0 0.3
2018-Apr-01 00:59N 33°14' W 119°34'1 1.5
2018-Apr-01 00:30N 33°14' W 119°33'4 7.2
2018-Apr-01 00:01N 33°13' W 119°29'3 1.6
2018-Mar-31 22:10N 33°13' W 119°33'2 4.1
2018-Mar-31 21:48N 33°14' W 119°34'0 0.0
2018-Mar-31 21:28N 33°14' W 119°34'0 0.1
2018-Mar-31 20:58N 33°14' W 119°34'0 0.1
2018-Mar-31 20:30N 33°14' W 119°34'0 0.0
2018-Mar-31 19:54N 33°14' W 119°34'0 0.2
2018-Mar-31 19:30N 33°14' W 119°34'0 0.2
2018-Mar-31 19:00N 33°14' W 119°34'0 0.1
2018-Mar-31 18:30N 33°14' W 119°34'0 0.1
2018-Mar-31 18:00N 33°14' W 119°34'0 0.2
2018-Mar-31 17:30N 33°14' W 119°34'0 0.6
2018-Mar-31 17:00N 33°14' W 119°34'0 0.1
2018-Mar-31 16:30N 33°14' W 119°34'0 0.0
2018-Mar-31 15:56N 33°14' W 119°34'0 0.1
2018-Mar-31 15:29N 33°14' W 119°34'0 0.0
2018-Mar-31 14:58N 33°14' W 119°34'0 0.0
2018-Mar-31 14:30N 33°14' W 119°34'0 0.0
2018-Mar-31 14:00N 33°14' W 119°34'0 0.0
2018-Mar-31 13:30N 33°14' W 119°34'0 0.0
2018-Mar-31 13:00N 33°14' W 119°34'0 0.0
2018-Mar-31 12:30N 33°14' W 119°34'0 0.0
2018-Mar-31 12:00N 33°14' W 119°34'0 0.0
2018-Mar-31 11:29N 33°14' W 119°34'0 0.0
2018-Mar-31 11:00N 33°14' W 119°34'0 0.0
2018-Mar-31 10:28N 33°14' W 119°34'0 0.0
2018-Mar-31 10:00N 33°14' W 119°34'0 0.0
2018-Mar-31 09:24N 33°14' W 119°34'0 0.0
2018-Mar-31 09:00N 33°14' W 119°34'0 0.0
2018-Mar-31 06:49N 33°14' W 119°34'0 0.0
2018-Mar-31 06:19N 33°14' W 119°34'0 0.1
2018-Mar-31 05:51N 33°14' W 119°34'0 0.0
2018-Mar-31 05:22N 33°14' W 119°34'0 0.1
2018-Mar-31 04:42N 33°14' W 119°34'1 1.8
2018-Mar-31 04:08N 33°14' W 119°35'1 4.1
2018-Mar-31 03:50N 33°14' W 119°34'0 0.2
2018-Mar-31 03:28N 33°14' W 119°34'0 0.1
2018-Mar-31 03:00N 33°14' W 119°34'0 0.6
2018-Mar-31 02:18N 33°14' W 119°34'0 0.2
2018-Mar-31 01:45N 33°14' W 119°34'0 0.0
2018-Mar-31 01:29N 33°14' W 119°34'0 0.0
2018-Mar-31 00:39N 33°14' W 119°34'0 0.0
2018-Mar-31 00:28N 33°14' W 119°34'0 0.0
2018-Mar-30 23:53N 33°14' W 119°34'0 0.0
2018-Mar-30 21:56N 33°14' W 119°34'0 0.2
2018-Mar-30 21:17N 33°14' W 119°34'0 0.2
2018-Mar-30 20:59N 33°14' W 119°34'0 0.0
2018-Mar-30 18:54N 33°14' W 119°34'0 0.0
2018-Mar-30 18:27N 33°14' W 119°34'0 0.0
2018-Mar-30 17:59N 33°14' W 119°34'0 0.1
2018-Mar-30 17:27N 33°14' W 119°34'0 0.0
2018-Mar-30 16:54N 33°14' W 119°34'0 0.1
2018-Mar-30 16:26N 33°14' W 119°34'0 0.0
2018-Mar-30 15:49N 33°14' W 119°34'0 0.2
2018-Mar-30 15:28N 33°14' W 119°34'0 0.0
2018-Mar-30 15:00N 33°14' W 119°34'0 0.0
2018-Mar-30 14:29N 33°14' W 119°34'0 0.2
2018-Mar-30 14:00N 33°14' W 119°34'0 0.1
2018-Mar-30 13:26N 33°14' W 119°34'6 5.9
2018-Mar-30 12:27N 33°12' W 119°28'1 1.4
2018-Mar-30 11:29N 33°13' W 119°26'0 0.0
2018-Mar-30 10:56N 33°13' W 119°26'0 0.0
2018-Mar-30 10:23N 33°13' W 119°26'0 0.0
2018-Mar-30 10:00N 33°13' W 119°26'0 0.0
2018-Mar-30 09:30N 33°13' W 119°26'0 0.0
2018-Mar-30 08:59N 33°13' W 119°26'0 0.0
2018-Mar-30 08:31N 33°13' W 119°26'0 0.1
2018-Mar-30 00:59N 33°13' W 119°26'3 6.7
2018-Mar-30 00:30N 33°13' W 119°22'4 8.9
2018-Mar-30 00:00N 33°17' W 119°19'4 8.7
2018-Mar-29 23:30N 33°20' W 119°15'4 8.3
2018-Mar-29 23:00N 33°23' W 119°12'5 8.0
2018-Mar-29 22:19N 33°27' W 119°08'3 7.9
2018-Mar-29 21:59N 33°30' W 119°07'4 8.3
2018-Mar-29 21:27N 33°34' W 119°06'4 8.6
2018-Mar-29 20:59N 33°38' W 119°05'4 8.6
2018-Mar-29 20:30N 33°42' W 119°06'4 8.4
2018-Mar-29 20:00N 33°46' W 119°06'4 8.5
2018-Mar-29 19:29N 33°51' W 119°06'4 8.5
2018-Mar-29 19:00N 33°55' W 119°06'4 8.5
2018-Mar-29 18:30N 33°59' W 119°09'5 8.3
2018-Mar-29 17:55N 34°03' W 119°11'3 8.2
2018-Mar-29 17:30N 34°06' W 119°13'1 2.4
2018-Mar-29 17:00N 34°07' W 119°14'1 1.6
2018-Mar-29 16:30N 34°08' W 119°13'0 0.8
2018-Mar-29 15:58N 34°08' W 119°13'0 0.8
2018-Mar-29 15:28N 34°07' W 119°13'0 0.8
2018-Mar-29 15:00N 34°07' W 119°13'0 0.8
2018-Mar-29 14:29N 34°07' W 119°12'2 4.5
2018-Mar-29 14:01N 34°05' W 119°10'3 6.1
2018-Mar-29 13:30N 34°03' W 119°07'3 6.0
2018-Mar-29 12:57N 34°01' W 119°04'3 6.2
2018-Mar-29 12:30N 33°59' W 119°02'3 6.6
2018-Mar-29 12:00N 33°57' W 118°59'4 7.0
2018-Mar-29 11:30N 33°54' W 118°56'3 7.0
2018-Mar-29 11:00N 33°52' W 118°53'4 7.5
2018-Mar-29 10:30N 33°49' W 118°50'4 8.0
2018-Mar-29 10:00N 33°46' W 118°47'4 8.7
2018-Mar-29 09:30N 33°43' W 118°43'4 8.6
2018-Mar-29 09:00N 33°40' W 118°40'4 8.5
2018-Mar-29 08:30N 33°37' W 118°36'4 8.2
2018-Mar-29 08:00N 33°34' W 118°32'4 7.8
2018-Mar-29 07:30N 33°32' W 118°29'4 8.1
2018-Mar-29 07:00N 33°29' W 118°25'4 8.5
2018-Mar-29 06:30N 33°26' W 118°22'4 8.9
2018-Mar-29 06:00N 33°23' W 118°18'4 8.8
2018-Mar-29 05:31N 33°20' W 118°14'4 8.4
2018-Mar-29 04:59N 33°17' W 118°10'4 8.5
2018-Mar-29 04:29N 33°14' W 118°07'4 8.2
2018-Mar-29 04:01N 33°11' W 118°04'4 8.2
2018-Mar-29 03:30N 33°07' W 118°01'4 8.1
2018-Mar-29 02:59N 33°04' W 117°57'4 8.0
2018-Mar-29 02:30N 33°01' W 117°54'4 7.9
2018-Mar-29 02:00N 32°59' W 117°51'4 7.7
2018-Mar-29 01:31N 32°56' W 117°47'4 8.0
2018-Mar-29 00:57N 32°53' W 117°43'4 8.0
2018-Mar-29 00:30N 32°51' W 117°40'4 7.8
2018-Mar-29 00:00N 32°49' W 117°36'4 7.8
2018-Mar-28 23:30N 32°47' W 117°33'4 7.7
2018-Mar-28 23:00N 32°44' W 117°29'4 7.6
2018-Mar-28 22:30N 32°42' W 117°25'4 7.8
2018-Mar-28 22:00N 32°40' W 117°21'  

Dump ship's entire track history